createdAt,value
2018-01-11T00:02:32.901Z,0.10
2018-01-11T00:05:00.512Z,0.10
2018-01-11T00:07:33.177Z,0.10
2018-01-11T00:10:00.816Z,0.00
2018-01-11T00:12:31.869Z,0.00
2018-01-11T00:14:59.463Z,0.10
2018-01-11T00:17:34.153Z,0.10
2018-01-11T00:20:01.742Z,0.10
2018-01-11T00:22:33.102Z,0.00
2018-01-11T00:25:01.446Z,0.10
2018-01-11T00:27:50.770Z,0.10
2018-01-11T00:30:18.351Z,0.10
2018-01-11T00:32:46.942Z,0.10
2018-01-11T00:35:14.554Z,0.10
2018-01-11T00:37:50.443Z,0.10
2018-01-11T00:40:18.066Z,0.10
2018-01-11T00:45:39.392Z,0.00
2018-01-11T00:48:06.975Z,0.00
2018-01-11T00:50:48.080Z,0.00
2018-01-11T00:53:15.662Z,0.00
2018-01-11T00:55:57.515Z,0.00
2018-01-11T00:58:25.108Z,0.00
2018-01-11T01:00:52.705Z,-0.10
2018-01-11T01:03:20.322Z,-0.10
2018-01-11T01:05:48.916Z,0.00
2018-01-11T01:08:16.504Z,-0.10
2018-01-11T01:11:04.365Z,-0.10
2018-01-11T01:13:31.958Z,-0.10
2018-01-11T01:16:19.781Z,-0.20
2018-01-11T01:18:47.345Z,-0.10
2018-01-11T01:21:19.663Z,0.00
2018-01-11T01:23:47.254Z,0.00
2018-01-11T01:26:18.336Z,0.00
2018-01-11T01:28:45.961Z,-0.10
2018-01-11T01:31:29.352Z,-0.20
2018-01-11T01:33:56.978Z,-0.20
2018-01-11T01:36:25.572Z,-0.10
2018-01-11T01:38:53.163Z,-0.10
2018-01-11T01:41:38.665Z,-0.10
2018-01-11T01:44:06.270Z,-0.20
2018-01-11T01:46:53.647Z,-0.20
2018-01-11T01:49:21.252Z,-0.30
2018-01-11T01:51:54.965Z,-0.40
2018-01-11T01:54:22.555Z,-0.40
2018-01-11T01:56:59.507Z,-0.40
2018-01-11T01:59:27.096Z,-0.40
2018-01-11T02:02:01.398Z,-0.40
2018-01-11T02:04:29.756Z,-0.30
2018-01-11T02:09:55.480Z,-0.20
2018-01-11T02:12:23.097Z,-0.20
2018-01-11T02:14:50.686Z,-0.10
2018-01-11T02:17:18.286Z,-0.10
2018-01-11T02:19:47.881Z,-0.10
2018-01-11T02:22:15.477Z,-0.10
2018-01-11T02:25:04.436Z,-0.10
2018-01-11T02:27:32.799Z,-0.20
2018-01-11T02:30:01.378Z,-0.20
2018-01-11T02:32:28.990Z,-0.40
2018-01-11T02:35:08.647Z,-0.50
2018-01-11T02:37:36.238Z,-0.50
2018-01-11T02:40:03.834Z,-0.60
2018-01-11T02:42:31.455Z,-0.50
2018-01-11T02:45:11.343Z,-0.50
2018-01-11T02:47:38.983Z,-0.50
2018-01-11T02:50:09.253Z,-0.50
2018-01-11T02:52:36.880Z,-0.50
2018-01-11T02:55:07.670Z,-0.50
2018-01-11T02:57:35.252Z,-0.50
2018-01-11T03:00:03.726Z,-0.40
2018-01-11T03:02:32.079Z,-0.50
2018-01-11T03:05:00.685Z,-0.50
2018-01-11T03:07:28.269Z,-0.40
2018-01-11T03:10:13.437Z,-0.40
2018-01-11T03:12:41.791Z,-0.30
2018-01-11T03:15:25.869Z,-0.40
2018-01-11T03:17:53.453Z,-0.30
2018-01-11T03:20:28.593Z,-0.30
2018-01-11T03:22:56.174Z,-0.20
2018-01-11T03:25:45.478Z,-0.20
2018-01-11T03:28:13.841Z,-0.20
2018-01-11T03:30:46.206Z,-0.20
2018-01-11T03:33:13.809Z,-0.20
2018-01-11T03:35:44.154Z,-0.10
2018-01-11T03:38:11.756Z,-0.10
2018-01-11T03:40:44.900Z,-0.10
2018-01-11T03:43:12.574Z,-0.10
2018-01-11T03:48:36.394Z,-0.10
2018-01-11T03:51:03.994Z,-0.10
2018-01-11T03:53:41.536Z,-0.10
2018-01-11T03:56:09.143Z,-0.10
2018-01-11T03:58:36.734Z,-0.10
2018-01-11T04:01:04.329Z,0.00
2018-01-11T04:03:44.792Z,0.00
2018-01-11T04:06:13.205Z,0.00
2018-01-11T04:08:46.600Z,0.00
2018-01-11T04:11:14.232Z,0.00
2018-01-11T04:13:56.624Z,0.00
2018-01-11T04:16:24.242Z,0.00
2018-01-11T04:19:05.137Z,0.00
2018-01-11T04:21:32.768Z,0.00
2018-01-11T04:24:03.418Z,0.00
2018-01-11T04:26:31.008Z,0.00
2018-01-11T04:31:54.890Z,-0.10
2018-01-11T04:34:22.527Z,-0.20
2018-01-11T04:36:50.122Z,-0.20
2018-01-11T04:39:17.704Z,-0.20
2018-01-11T04:42:02.761Z,-0.30
2018-01-11T04:44:31.126Z,-0.30
2018-01-11T04:47:17.468Z,-0.40
2018-01-11T04:49:45.073Z,-0.40
2018-01-11T04:52:29.361Z,-0.40
2018-01-11T04:54:57.723Z,-0.40
2018-01-11T04:57:26.073Z,-0.30
2018-01-11T04:59:53.696Z,-0.40
2018-01-11T05:02:25.065Z,-0.30
2018-01-11T05:04:52.664Z,-0.30
2018-01-11T05:07:39.398Z,-0.30
2018-01-11T05:10:07.000Z,-0.30
2018-01-11T05:18:20.795Z,-0.30
2018-01-11T05:20:48.419Z,-0.30
2018-01-11T05:23:17.955Z,-0.30
2018-01-11T05:25:45.526Z,-0.20
2018-01-11T05:28:32.382Z,-0.20
2018-01-11T05:30:59.995Z,-0.20
2018-01-11T05:33:31.242Z,-0.20
2018-01-11T05:35:58.810Z,-0.20
2018-01-11T05:41:19.501Z,-0.10
2018-01-11T05:43:47.121Z,-0.10
2018-01-11T05:46:14.709Z,-0.10
2018-01-11T05:48:42.295Z,-0.10
2018-01-11T05:51:16.921Z,-0.10
2018-01-11T05:53:44.499Z,-0.10
2018-01-11T05:56:14.922Z,-0.10
2018-01-11T05:58:43.297Z,-0.10
2018-01-11T06:01:31.229Z,-0.10
2018-01-11T06:03:58.804Z,-0.10
2018-01-11T06:06:34.600Z,0.00
2018-01-11T06:09:02.188Z,0.00
2018-01-11T06:11:29.779Z,0.00
2018-01-11T06:13:58.151Z,-0.10
2018-01-11T06:16:32.317Z,-0.10
2018-01-11T06:18:59.962Z,-0.10
2018-01-11T06:21:29.566Z,-0.10
2018-01-11T06:23:57.182Z,-0.20
2018-01-11T06:26:37.542Z,-0.20
2018-01-11T06:29:05.931Z,-0.10
2018-01-11T06:31:33.530Z,-0.20
2018-01-11T06:34:01.100Z,-0.20
2018-01-11T06:36:36.828Z,-0.20
2018-01-11T06:39:04.405Z,-0.10
2018-01-11T06:41:32.024Z,-0.20
2018-01-11T06:44:00.383Z,-0.20
2018-01-11T06:46:28.926Z,-0.20
2018-01-11T06:48:56.526Z,-0.20
2018-01-11T06:51:36.297Z,-0.10
2018-01-11T06:54:03.910Z,-0.10
2018-01-11T06:56:48.504Z,-0.10
2018-01-11T06:59:16.908Z,-0.10
2018-01-11T07:04:40.171Z,0.00
2018-01-11T07:07:07.778Z,0.00
2018-01-11T07:09:52.081Z,-0.10
2018-01-11T07:12:19.673Z,0.00
2018-01-11T07:15:04.081Z,0.00
2018-01-11T07:17:32.410Z,0.20
2018-01-11T07:20:07.228Z,0.20
2018-01-11T07:22:34.798Z,0.20
2018-01-11T07:25:06.236Z,0.20
2018-01-11T07:27:33.834Z,0.20
2018-01-11T07:30:04.529Z,0.20
2018-01-11T07:32:32.141Z,0.10
2018-01-11T07:35:01.484Z,0.10
2018-01-11T07:37:29.049Z,0.10
2018-01-11T07:39:57.658Z,0.10
2018-01-11T07:42:25.248Z,0.10
2018-01-11T07:44:59.713Z,0.10
2018-01-11T07:47:27.289Z,0.10
2018-01-11T07:50:05.285Z,0.10
2018-01-11T07:52:32.869Z,0.10
2018-01-11T07:55:01.347Z,0.10
2018-01-11T07:57:28.958Z,0.10
2018-01-11T08:02:49.468Z,0.10
2018-01-11T08:05:17.030Z,0.10
2018-01-11T08:07:44.598Z,0.10
2018-01-11T08:10:12.213Z,0.10
2018-01-11T08:12:40.557Z,0.10
2018-01-11T08:15:08.181Z,0.10
2018-01-11T08:17:36.699Z,0.10
2018-01-11T08:20:04.312Z,0.20
2018-01-11T08:22:37.465Z,0.10
2018-01-11T08:25:05.055Z,0.20
2018-01-11T08:27:47.774Z,0.10
2018-01-11T08:30:15.361Z,0.10
2018-01-11T08:32:44.880Z,0.20
2018-01-11T08:35:12.485Z,0.20
2018-01-11T08:37:40.838Z,0.20
2018-01-11T08:40:08.448Z,0.20
2018-01-11T08:42:51.052Z,0.20
2018-01-11T08:45:18.655Z,0.20
2018-01-11T08:47:52.726Z,0.20
2018-01-11T08:50:20.350Z,0.20
2018-01-11T08:52:48.908Z,0.30
2018-01-11T08:55:16.493Z,0.30
2018-01-11T08:57:45.070Z,0.30
2018-01-11T09:00:12.632Z,0.30
2018-01-11T09:02:43.786Z,0.40
2018-01-11T09:05:12.132Z,0.40
2018-01-11T09:07:45.333Z,0.40
2018-01-11T09:10:12.894Z,0.40
2018-01-11T09:13:01.156Z,0.40
2018-01-11T09:15:28.742Z,0.40
2018-01-11T09:18:08.409Z,0.50
2018-01-11T09:20:35.997Z,0.50
2018-01-11T09:23:20.500Z,0.50
2018-01-11T09:25:48.075Z,0.50
2018-01-11T09:28:39.560Z,0.50
2018-01-11T09:31:07.891Z,0.60
2018-01-11T09:33:45.992Z,0.60
2018-01-11T09:36:13.559Z,0.60
2018-01-11T09:38:45.009Z,0.60
2018-01-11T09:41:12.614Z,0.60
2018-01-11T09:43:40.965Z,0.70
2018-01-11T09:46:08.580Z,0.70
2018-01-11T09:48:36.176Z,0.70
2018-01-11T09:51:03.767Z,0.70
2018-01-11T09:53:32.146Z,0.80
2018-01-11T09:56:00.506Z,0.70
2018-01-11T09:58:29.074Z,0.70
2018-01-11T10:00:56.668Z,0.80
2018-01-11T10:03:24.243Z,0.80
2018-01-11T10:05:51.858Z,0.80
2018-01-11T10:08:26.236Z,0.90
2018-01-11T10:10:53.863Z,0.90
2018-01-11T10:13:28.933Z,0.90
2018-01-11T10:15:56.535Z,0.90
2018-01-11T10:18:30.585Z,0.90
2018-01-11T10:20:58.194Z,1.00
2018-01-11T10:23:40.010Z,0.90
2018-01-11T10:26:07.623Z,0.90
2018-01-11T10:28:53.772Z,0.90
2018-01-11T10:31:22.184Z,0.90
2018-01-11T10:34:06.097Z,0.90
2018-01-11T10:36:34.482Z,0.90
2018-01-11T10:39:13.099Z,1.00
2018-01-11T10:41:41.484Z,1.00
2018-01-11T10:44:20.010Z,1.00
2018-01-11T10:46:47.617Z,1.00
2018-01-11T10:49:32.086Z,1.00
2018-01-11T10:51:59.693Z,1.00
2018-01-11T10:54:28.195Z,1.20
2018-01-11T10:56:55.775Z,1.30
2018-01-11T10:59:37.082Z,1.40
2018-01-11T11:02:11.126Z,1.50
2018-01-11T11:04:44.800Z,1.50
2018-01-11T11:07:13.179Z,1.50
2018-01-11T11:09:44.998Z,1.50
2018-01-11T11:12:12.568Z,1.50
2018-01-11T11:15:01.759Z,1.60
2018-01-11T11:17:30.109Z,1.60
2018-01-11T11:20:04.932Z,1.60
2018-01-11T11:22:32.526Z,1.60
2018-01-11T11:25:02.801Z,1.50
2018-01-11T11:27:30.394Z,1.50
2018-01-11T11:30:23.464Z,1.50
2018-01-11T11:32:51.859Z,1.70
2018-01-11T11:35:21.393Z,1.60
2018-01-11T11:37:48.953Z,1.80
2018-01-11T11:43:10.503Z,1.90
2018-01-11T11:45:38.122Z,1.90
2018-01-11T11:51:07.774Z,2.10
2018-01-11T11:53:35.351Z,2.10
2018-01-11T11:56:20.267Z,2.10
2018-01-11T11:58:47.866Z,2.10
2018-01-11T12:01:16.438Z,2.10
2018-01-11T12:03:44.036Z,2.20
2018-01-11T12:06:37.012Z,2.20
2018-01-11T12:09:05.373Z,2.30
2018-01-11T12:11:35.006Z,2.20
2018-01-11T12:14:03.384Z,2.50
2018-01-11T12:16:42.419Z,2.50
2018-01-11T12:19:10.022Z,2.50
2018-01-11T12:24:31.531Z,2.50
2018-01-11T12:26:59.181Z,2.40
2018-01-11T12:29:32.360Z,2.50
2018-01-11T12:32:00.058Z,2.50
2018-01-11T12:34:27.670Z,2.50
2018-01-11T12:36:55.320Z,2.60
2018-01-11T12:39:23.002Z,2.60
2018-01-11T12:41:50.663Z,2.70
2018-01-11T12:44:18.378Z,2.70
2018-01-11T12:46:46.010Z,2.70
2018-01-11T12:49:13.665Z,2.70
2018-01-11T12:51:41.359Z,2.70
2018-01-11T12:54:09.020Z,2.80
2018-01-11T12:56:36.701Z,2.80
2018-01-11T12:59:04.374Z,2.90
2018-01-11T13:01:32.096Z,2.90
2018-01-11T13:03:59.792Z,2.90
2018-01-11T13:06:27.447Z,2.90
2018-01-11T13:08:55.121Z,2.90
2018-01-11T13:11:22.788Z,2.90
2018-01-11T13:13:50.468Z,3.00
2018-01-11T13:16:18.180Z,3.00
2018-01-11T13:18:45.864Z,3.00
2018-01-11T13:21:13.736Z,3.00
2018-01-11T13:23:41.382Z,3.00
2018-01-11T13:26:09.058Z,3.00
2018-01-11T13:28:36.755Z,3.10
2018-01-11T13:31:04.446Z,3.10
2018-01-11T13:33:32.136Z,3.10
2018-01-11T13:35:59.788Z,3.10
2018-01-11T13:38:28.281Z,3.20
2018-01-11T13:40:55.908Z,3.20
2018-01-11T13:43:23.807Z,3.20
2018-01-11T13:45:51.454Z,3.20
2018-01-11T13:48:19.296Z,3.30
2018-01-11T13:50:46.866Z,3.30
2018-01-11T13:53:15.608Z,3.20
2018-01-11T13:55:44.023Z,3.10
2018-01-11T13:58:13.151Z,3.10
2018-01-11T14:00:41.927Z,3.10
2018-01-11T14:03:09.574Z,3.00
2018-01-11T14:05:37.202Z,3.00
2018-01-11T14:08:04.780Z,3.00
2018-01-11T14:10:33.164Z,3.00
2018-01-11T14:13:01.551Z,3.00
2018-01-11T14:15:29.924Z,3.00
2018-01-11T14:17:57.801Z,3.00
2018-01-11T14:20:25.400Z,3.00
2018-01-11T14:22:53.323Z,2.90
2018-01-11T14:25:20.965Z,2.80
2018-01-11T14:27:48.858Z,2.80
2018-01-11T14:30:16.490Z,2.90
2018-01-11T14:32:44.332Z,2.90
2018-01-11T14:35:13.320Z,2.90
2018-01-11T14:37:43.266Z,3.00
2018-01-11T14:40:12.380Z,2.90
2018-01-11T14:42:40.343Z,3.00
2018-01-11T14:45:07.923Z,3.00
2018-01-11T14:47:35.841Z,3.00
2018-01-11T14:50:03.441Z,3.00
2018-01-11T14:52:31.391Z,3.00
2018-01-11T14:54:59.004Z,3.00
2018-01-11T14:57:26.867Z,3.10
2018-01-11T14:59:54.495Z,3.00
2018-01-11T15:02:22.447Z,3.00
2018-01-11T15:04:50.012Z,3.00
2018-01-11T15:07:18.565Z,3.00
2018-01-11T15:09:46.140Z,3.00
2018-01-11T15:12:14.167Z,3.10
2018-01-11T15:14:42.911Z,3.00
2018-01-11T15:17:11.872Z,3.00
2018-01-11T15:19:39.459Z,3.00
2018-01-11T15:22:07.273Z,3.10
2018-01-11T15:24:34.890Z,3.10
2018-01-11T15:27:02.812Z,3.10
2018-01-11T15:29:30.376Z,3.00
2018-01-11T15:31:58.924Z,3.00
2018-01-11T15:34:26.488Z,3.00
2018-01-11T15:36:54.127Z,3.10
2018-01-11T15:39:21.699Z,3.10
2018-01-11T15:41:49.328Z,3.10
2018-01-11T15:44:17.689Z,3.00
2018-01-11T15:46:45.532Z,3.00
2018-01-11T15:49:13.908Z,3.00
2018-01-11T15:51:42.654Z,3.00
2018-01-11T15:54:10.255Z,3.00
2018-01-11T15:56:38.093Z,3.00
2018-01-11T15:59:05.691Z,2.90
2018-01-11T16:01:34.247Z,2.90
2018-01-11T16:04:01.820Z,2.90
2018-01-11T16:06:29.416Z,2.90
2018-01-11T16:08:57.029Z,2.90
2018-01-11T16:11:24.654Z,2.90
2018-01-11T16:13:53.043Z,2.90
2018-01-11T16:16:21.403Z,2.90
2018-01-11T16:18:49.017Z,2.90
2018-01-11T16:21:17.873Z,2.90
2018-01-11T16:23:45.457Z,2.90
2018-01-11T16:26:13.080Z,2.80
2018-01-11T16:28:41.759Z,2.70
2018-01-11T16:31:09.564Z,2.70
2018-01-11T16:33:37.156Z,2.70
2018-01-11T16:36:05.143Z,2.70
2018-01-11T16:38:32.730Z,2.60
2018-01-11T16:41:00.656Z,2.70
2018-01-11T16:43:28.236Z,2.70
2018-01-11T16:45:56.711Z,2.70
2018-01-11T16:48:24.341Z,2.70
2018-01-11T16:50:51.949Z,2.60
2018-01-11T16:53:20.347Z,2.60
2018-01-11T16:55:48.701Z,2.60
2018-01-11T16:58:16.301Z,2.60
2018-01-11T17:00:43.926Z,2.60
2018-01-11T17:03:12.802Z,2.60
2018-01-11T17:05:41.226Z,2.60
2018-01-11T17:08:08.799Z,2.60
2018-01-11T17:10:37.490Z,2.60
2018-01-11T17:13:05.059Z,2.60
2018-01-11T17:15:32.632Z,2.60
2018-01-11T17:18:00.246Z,2.70
2018-01-11T17:20:27.870Z,2.70
2018-01-11T17:22:55.484Z,2.70
2018-01-11T17:25:23.076Z,2.70
2018-01-11T17:27:51.015Z,2.70
2018-01-11T17:30:18.657Z,2.70
2018-01-11T17:32:46.980Z,2.70
2018-01-11T17:35:14.887Z,2.70
2018-01-11T17:37:42.483Z,2.70
2018-01-11T17:40:10.337Z,2.80
2018-01-11T17:42:37.920Z,2.70
2018-01-11T17:45:05.525Z,2.70
2018-01-11T17:47:33.102Z,2.70
2018-01-11T17:50:00.735Z,2.70
2018-01-11T17:52:28.345Z,2.70
2018-01-11T17:54:55.942Z,2.70
2018-01-11T17:57:23.539Z,2.70
2018-01-11T17:59:51.130Z,2.70
2018-01-11T18:02:18.763Z,2.70
2018-01-11T18:04:46.370Z,2.70
2018-01-11T18:07:14.735Z,2.70
2018-01-11T18:09:43.203Z,2.70
2018-01-11T18:12:11.292Z,2.70
2018-01-11T18:14:38.978Z,2.70
2018-01-11T18:17:06.565Z,2.70
2018-01-11T18:19:34.207Z,2.70
2018-01-11T18:22:01.813Z,2.70
2018-01-11T18:24:30.377Z,2.70
2018-01-11T18:26:57.968Z,2.70
2018-01-11T18:29:25.543Z,2.70
2018-01-11T18:31:53.713Z,2.70
2018-01-11T18:34:21.402Z,2.70
2018-01-11T18:36:49.029Z,2.70
2018-01-11T18:39:16.990Z,2.60
2018-01-11T18:41:44.607Z,2.60
2018-01-11T18:44:13.380Z,2.70
2018-01-11T18:46:41.972Z,2.70
2018-01-11T18:49:11.621Z,2.80
2018-01-11T18:51:39.964Z,2.70
2018-01-11T18:54:07.893Z,2.70
2018-01-11T18:56:35.495Z,2.70
2018-01-11T18:59:03.356Z,2.70
2018-01-11T19:01:30.922Z,2.70
2018-01-11T19:03:58.565Z,2.70
2018-01-11T19:06:26.915Z,2.70
2018-01-11T19:08:54.708Z,2.70
2018-01-11T19:11:22.295Z,2.60
2018-01-11T19:13:49.907Z,2.50
2018-01-11T19:16:17.478Z,2.50
2018-01-11T19:18:45.141Z,2.50
2018-01-11T19:21:12.743Z,2.50
2018-01-11T19:23:40.378Z,2.50
2018-01-11T19:26:08.740Z,2.50
2018-01-11T19:28:36.498Z,2.50
2018-01-11T19:31:04.104Z,2.50
2018-01-11T19:33:31.698Z,2.60
2018-01-11T19:35:59.310Z,2.50
2018-01-11T19:38:26.930Z,2.50
2018-01-11T19:40:54.541Z,2.60
2018-01-11T19:43:22.127Z,2.50
2018-01-11T19:45:49.752Z,2.60
2018-01-11T19:48:17.383Z,2.60
2018-01-11T19:50:44.987Z,2.60
2018-01-11T19:53:12.607Z,2.60
2018-01-11T19:55:41.045Z,2.60
2018-01-11T19:58:08.932Z,2.70
2018-01-11T20:00:37.268Z,2.60
2018-01-11T20:03:05.246Z,2.60
2018-01-11T20:05:32.830Z,2.70
2018-01-11T20:08:00.735Z,2.60
2018-01-11T20:10:28.310Z,2.60
2018-01-11T20:12:55.960Z,2.60
2018-01-11T20:15:23.537Z,2.60
2018-01-11T20:17:51.325Z,2.60
2018-01-11T20:20:18.933Z,2.70
2018-01-11T20:22:47.701Z,2.70
2018-01-11T20:25:16.070Z,2.70
2018-01-11T20:27:44.713Z,2.70
2018-01-11T20:30:12.888Z,2.70
2018-01-11T20:32:41.712Z,2.60
2018-01-11T20:35:09.299Z,2.60
2018-01-11T20:37:36.883Z,2.70
2018-01-11T20:40:04.545Z,2.70
2018-01-11T20:42:32.167Z,2.60
2018-01-11T20:45:00.559Z,2.70
2018-01-11T20:47:28.381Z,2.70
2018-01-11T20:49:56.060Z,2.70
2018-01-11T20:52:23.870Z,2.70
2018-01-11T20:54:51.491Z,2.70
2018-01-11T20:57:19.455Z,2.70
2018-01-11T20:59:47.062Z,2.70
2018-01-11T21:02:15.862Z,2.70
2018-01-11T21:04:43.485Z,2.70
2018-01-11T21:07:12.653Z,2.80
2018-01-11T21:09:40.290Z,2.70
2018-01-11T21:12:08.135Z,2.70
2018-01-11T21:14:35.724Z,2.70
2018-01-11T21:17:12.620Z,2.70
2018-01-11T21:19:40.926Z,2.70
2018-01-11T21:22:08.730Z,2.70
2018-01-11T21:24:36.318Z,2.70
2018-01-11T21:27:04.321Z,2.70
2018-01-11T21:29:31.896Z,2.70
2018-01-11T21:31:59.805Z,2.70
2018-01-11T21:34:27.384Z,2.70
2018-01-11T21:36:55.276Z,2.70
2018-01-11T21:39:22.842Z,2.70
2018-01-11T21:41:50.448Z,2.70
2018-01-11T21:44:18.049Z,2.70
2018-01-11T21:46:45.680Z,2.80
2018-01-11T21:49:13.915Z,2.70
2018-01-11T21:51:42.476Z,2.80
2018-01-11T21:54:10.091Z,2.80
2018-01-11T21:56:38.890Z,2.80
2018-01-11T21:59:07.251Z,2.80
2018-01-11T22:01:35.093Z,2.70
2018-01-11T22:04:02.688Z,2.80
2018-01-11T22:06:30.568Z,2.80
2018-01-11T22:08:58.936Z,2.80
2018-01-11T22:11:26.777Z,2.80
2018-01-11T22:13:54.391Z,2.80
2018-01-11T22:16:22.247Z,2.80
2018-01-11T22:18:49.840Z,2.80
2018-01-11T22:21:17.433Z,2.80
2018-01-11T22:23:45.034Z,2.80
2018-01-11T22:26:13.631Z,2.80
2018-01-11T22:28:42.117Z,2.80
2018-01-11T22:31:09.728Z,2.80
2018-01-11T22:33:37.296Z,2.80
2018-01-11T22:36:05.018Z,2.80
2018-01-11T22:38:32.588Z,2.80
2018-01-11T22:41:00.217Z,2.80
2018-01-11T22:43:28.551Z,2.80
2018-01-11T22:45:56.377Z,2.80
2018-01-11T22:48:23.953Z,2.80
2018-01-11T22:50:51.576Z,2.80
2018-01-11T22:53:19.908Z,2.80
2018-01-11T22:55:47.716Z,2.80
2018-01-11T22:58:15.311Z,2.80
2018-01-11T23:00:44.388Z,2.80
2018-01-11T23:03:13.837Z,2.80
2018-01-11T23:05:42.539Z,2.80
2018-01-11T23:08:10.894Z,2.80
2018-01-11T23:10:38.579Z,2.80
2018-01-11T23:13:06.179Z,2.80
2018-01-11T23:15:33.813Z,2.80
2018-01-11T23:18:01.397Z,2.80
2018-01-11T23:20:29.952Z,2.80
2018-01-11T23:22:57.538Z,2.80
2018-01-11T23:25:25.122Z,2.80
2018-01-11T23:27:52.716Z,2.80
2018-01-11T23:30:20.357Z,2.80
2018-01-11T23:32:48.731Z,2.80
2018-01-11T23:35:16.562Z,2.80
2018-01-11T23:37:44.176Z,2.80
2018-01-11T23:40:13.263Z,2.80
2018-01-11T23:42:40.945Z,2.80
2018-01-11T23:45:10.426Z,2.80
2018-01-11T23:47:38.047Z,2.80
2018-01-11T23:50:05.880Z,2.80
2018-01-11T23:52:34.264Z,2.80
2018-01-11T23:55:02.911Z,2.80
2018-01-11T23:57:30.518Z,2.90
2018-01-11T23:59:59.088Z,2.90
